Time;durP1;ratioP1;P1;durP2;ratioP2;P2;SDS_P1;SDS_P2;PMS_P1;PMS_P2;Temp;Humidity;BMP_temperature;BMP_pressure;BME280_temperature;BME280_humidity;BME280_pressure;Samples;Min_cycle;Max_cycle;Signal;HPM_P1;HPM_P2
2023/04/19 00:00:43;;;;;;;12.77;10.18;;;7.80;99.90;;;;;;6098684;23;20108;-81
2023/04/19 00:03:10;;;;;;;13.40;10.50;;;7.80;99.90;;;;;;6123525;23;20006;-81
2023/04/19 00:05:37;;;;;;;13.38;11.18;;;7.90;99.90;;;;;;6098653;23;20060;-81
2023/04/19 00:08:04;;;;;;;13.38;11.50;;;7.80;99.90;;;;;;6122901;23;20014;-80
2023/04/19 00:10:30;;;;;;;16.00;11.85;;;7.80;99.90;;;;;;6098805;23;20018;-81
2023/04/19 00:12:55;;;;;;;14.02;11.27;;;7.80;99.90;;;;;;6124345;23;20037;-80
2023/04/19 00:15:21;;;;;;;15.27;12.68;;;7.80;99.90;;;;;;6098759;23;20010;-81
2023/04/19 00:17:47;;;;;;;13.25;11.20;;;7.80;99.90;;;;;;6098657;23;20006;-81
2023/04/19 00:20:12;;;;;;;14.27;11.93;;;7.70;99.90;;;;;;6123394;23;20377;-81
2023/04/19 00:22:39;;;;;;;15.55;11.50;;;7.70;99.90;;;;;;6124480;23;20426;-81
2023/04/19 00:25:05;;;;;;;15.73;11.68;;;7.70;99.90;;;;;;6124884;23;20053;-80
2023/04/19 00:27:31;;;;;;;14.95;10.48;;;7.70;99.90;;;;;;6097910;23;20084;-80
2023/04/19 00:29:56;;;;;;;13.30;10.55;;;7.70;99.90;;;;;;6123029;23;20070;-81
2023/04/19 00:32:22;;;;;;;12.43;10.77;;;7.70;99.90;;;;;;6123138;23;20093;-81
2023/04/19 00:34:48;;;;;;;14.20;11.38;;;7.80;99.90;;;;;;6124779;23;20014;-79
2023/04/19 00:37:14;;;;;;;15.48;12.55;;;7.60;99.90;;;;;;6098285;23;20017;-80
2023/04/19 00:39:40;;;;;;;15.05;11.35;;;7.60;99.90;;;;;;6124601;23;20061;-81
2023/04/19 00:42:06;;;;;;;16.48;12.48;;;8.10;99.90;;;;;;6122142;23;20005;-81
2023/04/19 00:44:31;;;;;;;17.40;11.52;;;8.10;99.90;;;;;;6098280;23;20010;-80
2023/04/19 00:46:58;;;;;;;16.10;11.75;;;7.60;99.90;;;;;;6098073;23;20145;-80
2023/04/19 00:49:24;;;;;;;13.80;10.57;;;7.60;99.90;;;;;;6122542;23;20014;-81
2023/04/19 00:51:51;;;;;;;17.98;10.75;;;7.60;99.90;;;;;;6098146;23;20228;-80
2023/04/19 00:54:18;;;;;;;13.63;10.30;;;7.80;99.90;;;;;;6098162;23;20024;-81
2023/04/19 00:56:44;;;;;;;13.88;9.80;;;7.60;99.90;;;;;;6152308;23;20017;-81
2023/04/19 00:59:11;;;;;;;14.18;10.40;;;7.50;99.90;;;;;;6127971;23;20050;-81
2023/04/19 01:01:37;;;;;;;13.75;10.10;;;7.50;99.90;;;;;;6127767;23;20014;-81
2023/04/19 01:04:04;;;;;;;12.15;10.35;;;7.50;99.90;;;;;;6153796;23;20017;-80
2023/04/19 01:06:30;;;;;;;14.52;10.95;;;7.50;99.90;;;;;;6127323;23;20014;-82
2023/04/19 01:08:56;;;;;;;14.40;10.95;;;7.50;99.90;;;;;;6102856;23;20014;-80
2023/04/19 01:11:25;;;;;;;17.70;11.70;;;7.50;99.90;;;;;;6126446;23;20017;-81
2023/04/19 01:13:51;;;;;;;17.05;11.95;;;7.50;99.90;;;;;;6127309;23;20082;-81
2023/04/19 01:16:17;;;;;;;15.30;11.35;;;7.50;99.90;;;;;;6153612;23;20110;-80
2023/04/19 01:18:43;;;;;;;17.25;11.27;;;7.50;99.90;;;;;;6127279;23;20005;-81
2023/04/19 01:21:09;;;;;;;18.25;11.80;;;7.40;99.90;;;;;;6127448;23;20380;-81
2023/04/19 01:23:35;;;;;;;16.00;11.88;;;7.70;99.90;;;;;;6102779;23;20333;-80
2023/04/19 01:26:01;;;;;;;18.33;13.25;;;7.30;99.90;;;;;;6102087;23;20049;-80
2023/04/19 01:28:27;;;;;;;21.40;13.55;;;7.30;99.90;;;;;;6126961;23;20083;-80
2023/04/19 01:30:53;;;;;;;15.82;12.63;;;7.30;99.90;;;;;;6102631;23;20080;-81
2023/04/19 01:33:22;;;;;;;18.13;13.63;;;7.20;99.90;;;;;;6127219;23;20424;-81
2023/04/19 01:35:48;;;;;;;15.52;12.45;;;7.50;99.90;;;;;;6126958;23;20349;-80
2023/04/19 01:38:15;;;;;;;15.60;12.52;;;7.20;99.90;;;;;;6102473;23;20429;-81
2023/04/19 01:40:41;;;;;;;16.13;13.55;;;7.20;99.90;;;;;;6126886;23;20337;-80
2023/04/19 01:43:07;;;;;;;15.48;12.95;;;7.20;99.90;;;;;;6127073;23;20013;-81
2023/04/19 01:45:33;;;;;;;19.50;13.93;;;7.10;99.90;;;;;;6127237;23;20029;-80
2023/04/19 01:48:01;;;;;;;18.30;15.32;;;7.10;99.90;;;;;;6127350;23;20440;-81
2023/04/19 01:50:27;;;;;;;16.42;14.32;;;7.20;99.90;;;;;;6126777;23;20092;-80
2023/04/19 01:52:52;;;;;;;18.10;15.27;;;7.10;99.90;;;;;;6102487;23;20460;-81
2023/04/19 01:55:18;;;;;;;20.08;15.50;;;7.40;99.90;;;;;;6121433;23;20021;-80
2023/04/19 01:57:44;;;;;;;19.33;14.75;;;7.10;99.90;;;;;;6097606;23;20050;-80
2023/04/19 02:00:10;;;;;;;17.88;14.00;;;7.10;99.90;;;;;;6097193;23;20015;-81
2023/04/19 02:02:37;;;;;;;19.50;14.82;;;7.10;99.90;;;;;;6121955;23;20045;-81
2023/04/19 02:05:06;;;;;;;17.52;14.35;;;7.10;99.90;;;;;;6121973;23;20010;-80
2023/04/19 02:07:32;;;;;;;17.83;14.45;;;7.00;99.90;;;;;;6123662;23;20338;-82
2023/04/19 02:10:00;;;;;;;19.02;14.07;;;7.50;99.90;;;;;;6096984;23;20018;-80
2023/04/19 02:12:30;;;;;;;22.42;15.13;;;7.00;99.90;;;;;;6097559;23;20014;-80
2023/04/19 02:14:56;;;;;;;17.42;13.45;;;7.00;99.90;;;;;;6123805;23;20010;-81
2023/04/19 02:17:22;;;;;;;21.90;14.55;;;6.90;99.90;;;;;;6121794;23;20010;-81
2023/04/19 02:19:48;;;;;;;16.40;14.02;;;6.90;99.90;;;;;;6122206;23;20034;-80
2023/04/19 02:22:14;;;;;;;15.80;13.50;;;6.90;99.90;;;;;;6121878;23;20160;-81
2023/04/19 02:24:39;;;;;;;19.70;13.73;;;6.80;99.90;;;;;;6123287;23;20019;-81
2023/04/19 02:27:05;;;;;;;18.85;13.95;;;6.90;99.90;;;;;;6123401;23;20381;-80
2023/04/19 02:29:32;;;;;;;18.75;13.70;;;6.90;99.90;;;;;;6122019;23;20025;-81
2023/04/19 02:31:57;;;;;;;17.77;13.32;;;6.80;99.90;;;;;;6121780;23;20025;-81
2023/04/19 02:34:23;;;;;;;17.58;13.35;;;6.80;99.90;;;;;;6121759;23;20013;-80
2023/04/19 02:36:48;;;;;;;19.25;12.95;;;6.80;99.90;;;;;;6121597;23;20025;-81
2023/04/19 02:39:15;;;;;;;17.10;12.45;;;6.80;99.90;;;;;;6123120;23;20098;-81
2023/04/19 02:41:41;;;;;;;15.68;12.75;;;6.70;99.90;;;;;;6123525;23;20076;-81
2023/04/19 02:44:07;;;;;;;17.20;11.52;;;6.70;99.90;;;;;;6123730;23;20504;-81
2023/04/19 02:46:33;;;;;;;14.07;11.55;;;6.60;99.90;;;;;;6122070;23;20017;-80
2023/04/19 02:49:00;;;;;;;15.25;10.98;;;6.60;99.90;;;;;;6121553;23;20096;-81
2023/04/19 02:51:26;;;;;;;13.60;10.95;;;6.60;99.90;;;;;;6121337;23;20017;-80
2023/04/19 02:53:52;;;;;;;16.30;10.35;;;6.60;99.90;;;;;;6121201;23;20010;-80
2023/04/19 02:56:17;;;;;;;14.88;10.02;;;6.50;99.90;;;;;;6146535;23;20017;-82
2023/04/19 02:58:43;;;;;;;17.55;9.88;;;6.40;99.90;;;;;;6126390;23;20467;-81
2023/04/19 03:01:09;;;;;;;14.02;10.75;;;6.40;99.90;;;;;;6102009;23;20013;-81
2023/04/19 03:03:35;;;;;;;13.68;9.63;;;6.50;99.90;;;;;;6152936;23;20014;-81
2023/04/19 03:06:02;;;;;;;15.38;10.63;;;6.40;99.90;;;;;;6126979;23;20467;-81
2023/04/19 03:08:27;;;;;;;12.30;9.18;;;6.40;99.90;;;;;;6101423;23;20020;-81
2023/04/19 03:10:53;;;;;;;13.95;10.00;;;6.80;99.90;;;;;;6101709;23;20013;-80
2023/04/19 03:13:18;;;;;;;13.85;10.30;;;6.30;99.90;;;;;;6153008;23;20059;-81
2023/04/19 03:15:44;;;;;;;12.73;8.93;;;6.20;99.90;;;;;;6102053;23;20382;-82
2023/04/19 03:18:10;;;;;;;13.10;9.70;;;6.20;99.90;;;;;;6152897;23;20014;-81
2023/04/19 03:20:35;;;;;;;13.55;9.93;;;6.20;99.90;;;;;;6101393;23;20056;-81
2023/04/19 03:23:01;;;;;;;13.15;9.77;;;6.20;99.90;;;;;;6101987;23;20017;-82
2023/04/19 03:25:26;;;;;;;13.20;9.85;;;6.20;99.90;;;;;;6126660;23;20009;-81
2023/04/19 03:27:53;;;;;;;11.70;9.63;;;6.10;99.90;;;;;;6152674;23;20329;-81
2023/04/19 03:30:18;;;;;;;15.02;9.77;;;6.10;99.90;;;;;;6102463;23;20112;-81
2023/04/19 03:32:46;;;;;;;13.48;9.32;;;6.10;99.90;;;;;;6126336;23;20040;-81
2023/04/19 03:35:12;;;;;;;12.27;9.43;;;6.10;99.90;;;;;;6126335;23;20017;-81
2023/04/19 03:37:38;;;;;;;11.77;9.30;;;6.10;99.90;;;;;;6101920;23;20006;-81
2023/04/19 03:40:04;;;;;;;14.15;9.60;;;6.00;99.90;;;;;;6126692;23;20510;-81
2023/04/19 03:42:29;;;;;;;12.90;9.68;;;6.00;99.90;;;;;;6101824;23;20045;-81
2023/04/19 03:44:56;;;;;;;12.75;8.95;;;6.00;99.90;;;;;;6126336;23;20009;-81
2023/04/19 03:47:24;;;;;;;12.07;9.30;;;5.90;99.90;;;;;;6102575;23;20121;-81
2023/04/19 03:49:50;;;;;;;11.30;9.02;;;6.50;99.90;;;;;;6101348;23;20049;-81
2023/04/19 03:52:15;;;;;;;11.75;9.38;;;6.10;99.90;;;;;;6125878;23;20389;-81
2023/04/19 03:54:41;;;;;;;13.57;8.60;;;5.80;99.90;;;;;;6101679;23;20417;-81
2023/04/19 03:57:06;;;;;;;13.10;9.50;;;5.80;99.90;;;;;;6126285;23;20025;-80
2023/04/19 03:59:34;;;;;;;11.90;9.15;;;5.80;99.90;;;;;;6126053;23;20017;-80
2023/04/19 04:01:59;;;;;;;13.15;8.73;;;5.80;99.90;;;;;;6126212;23;20010;-80
2023/04/19 04:04:25;;;;;;;11.25;8.80;;;5.80;99.90;;;;;;6151872;23;20084;-82
2023/04/19 04:06:50;;;;;;;12.77;9.45;;;5.80;99.90;;;;;;6126073;23;20013;-81
2023/04/19 04:09:16;;;;;;;13.60;9.55;;;5.80;99.90;;;;;;6101460;23;20021;-81
2023/04/19 04:11:42;;;;;;;14.13;9.45;;;5.70;99.90;;;;;;6126440;23;20032;-80
2023/04/19 04:14:07;;;;;;;12.52;8.95;;;5.60;99.90;;;;;;6152477;23;20021;-81
2023/04/19 04:16:33;;;;;;;13.68;9.80;;;5.60;99.90;;;;;;6152257;23;20274;-82
2023/04/19 04:18:58;;;;;;;12.23;8.77;;;5.60;99.90;;;;;;6125467;23;20013;-81
2023/04/19 04:21:25;;;;;;;12.18;8.85;;;5.60;99.90;;;;;;6126190;23;20433;-82
2023/04/19 04:23:52;;;;;;;12.43;9.23;;;5.60;99.90;;;;;;6128536;23;20092;-84
2023/04/19 04:26:18;;;;;;;16.55;8.80;;;5.60;99.90;;;;;;6103623;23;20014;-81
2023/04/19 04:28:44;;;;;;;11.55;9.13;;;5.60;99.90;;;;;;6127649;23;20017;-81
2023/04/19 04:31:11;;;;;;;9.73;8.13;;;5.60;99.90;;;;;;6127737;23;20017;-81
2023/04/19 04:33:37;;;;;;;11.63;8.73;;;5.50;99.90;;;;;;6152910;23;20437;-81
2023/04/19 04:36:04;;;;;;;9.52;8.52;;;5.50;99.90;;;;;;6103026;23;20017;-80
2023/04/19 04:38:30;;;;;;;12.27;9.02;;;5.40;99.90;;;;;;6103183;23;20456;-81
2023/04/19 04:40:56;;;;;;;13.13;8.93;;;5.40;99.90;;;;;;6127310;23;20316;-81
2023/04/19 04:43:27;;;;;;;16.13;9.80;;;5.40;99.90;;;;;;6153617;23;20016;-81
2023/04/19 04:45:56;;;;;;;11.32;8.57;;;5.50;99.90;;;;;;6153804;23;20013;-81
2023/04/19 04:48:21;;;;;;;12.88;9.25;;;5.40;99.90;;;;;;6126344;23;20025;-82
2023/04/19 04:50:47;;;;;;;13.05;8.48;;;5.50;99.90;;;;;;6127487;23;20010;-81
2023/04/19 04:53:12;;;;;;;14.60;9.10;;;5.40;99.90;;;;;;6153591;23;20048;-82
2023/04/19 04:55:38;;;;;;;13.30;8.63;;;5.50;99.90;;;;;;6153201;23;20010;-81
2023/04/19 04:58:04;;;;;;;13.50;8.20;;;5.60;99.90;;;;;;6127750;23;20005;-82
2023/04/19 05:00:31;;;;;;;13.60;9.27;;;5.90;99.90;;;;;;6127194;23;20016;-82
2023/04/19 05:02:57;;;;;;;12.05;8.07;;;5.50;99.90;;;;;;6153338;23;20013;-82
2023/04/19 05:05:23;;;;;;;10.57;8.57;;;5.50;99.90;;;;;;6153921;23;20045;-83
2023/04/19 05:07:48;;;;;;;12.77;8.13;;;5.60;99.90;;;;;;6127493;23;20016;-83
2023/04/19 05:10:14;;;;;;;12.52;8.13;;;5.60;99.90;;;;;;6127557;23;20214;-82
2023/04/19 05:12:40;;;;;;;10.70;7.50;;;5.60;99.90;;;;;;6153767;23;20014;-82
2023/04/19 05:15:06;;;;;;;9.88;7.85;;;5.70;99.90;;;;;;6127645;23;20041;-81
2023/04/19 05:17:32;;;;;;;10.80;7.60;;;5.70;99.90;;;;;;6126766;23;20100;-81
2023/04/19 05:19:57;;;;;;;12.80;7.90;;;5.80;99.90;;;;;;6126491;23;20041;-82
2023/04/19 05:22:23;;;;;;;9.45;6.80;;;5.80;99.90;;;;;;6126167;23;20069;-81
2023/04/19 05:24:49;;;;;;;11.50;7.93;;;6.30;99.90;;;;;;6152664;23;20436;-82
2023/04/19 05:27:15;;;;;;;11.63;7.30;;;5.90;99.90;;;;;;6126176;23;20044;-81
2023/04/19 05:29:40;;;;;;;10.18;7.63;;;5.90;99.90;;;;;;6152437;23;20013;-81
2023/04/19 05:32:06;;;;;;;10.88;6.88;;;6.00;99.90;;;;;;6101350;23;20070;-82
2023/04/19 05:34:32;;;;;;;11.88;7.65;;;5.90;99.90;;;;;;6126222;23;20507;-82
2023/04/19 05:36:58;;;;;;;9.13;7.18;;;6.00;99.90;;;;;;6127239;23;20018;-81
2023/04/19 05:39:24;;;;;;;11.27;7.10;;;6.00;99.90;;;;;;6126853;23;20017;-81
2023/04/19 05:41:50;;;;;;;10.85;7.53;;;6.10;99.90;;;;;;6153741;23;20005;-81
2023/04/19 05:44:15;;;;;;;9.90;7.32;;;6.10;99.90;;;;;;6102540;23;20014;-81
2023/04/19 05:46:41;;;;;;;9.20;6.78;;;6.50;99.90;;;;;;6102041;23;20009;-81
2023/04/19 05:49:06;;;;;;;8.13;6.22;;;6.90;99.90;;;;;;6127121;23;20318;-82
2023/04/19 05:51:32;;;;;;;9.73;6.70;;;7.20;99.90;;;;;;6102446;23;20013;-82
2023/04/19 05:53:59;;;;;;;8.88;6.68;;;7.50;99.90;;;;;;6126742;23;20020;-81
2023/04/19 05:56:25;;;;;;;9.82;6.03;;;8.00;99.90;;;;;;6152863;23;20049;-82
2023/04/19 05:58:51;;;;;;;7.22;5.70;;;9.00;99.90;;;;;;6152884;23;20519;-82
2023/04/19 06:01:17;;;;;;;10.15;5.03;;;10.10;99.90;;;;;;6126793;23;20095;-82
2023/04/19 06:03:42;;;;;;;8.82;6.03;;;10.50;99.90;;;;;;6102195;23;20009;-82
2023/04/19 06:06:08;;;;;;;7.88;5.13;;;11.40;99.90;;;;;;6126593;23;20021;-83
2023/04/19 06:08:33;;;;;;;7.15;4.97;;;11.70;99.90;;;;;;6126704;23;20101;-82
2023/04/19 06:10:59;;;;;;;8.57;5.53;;;12.40;99.90;;;;;;6152715;23;20035;-82
2023/04/19 06:13:25;;;;;;;8.85;4.80;;;13.60;99.90;;;;;;6126784;23;20072;-82
2023/04/19 06:15:51;;;;;;;8.38;4.95;;;13.40;96.90;;;;;;6152211;23;20456;-83
2023/04/19 06:18:16;;;;;;;6.75;4.90;;;14.00;95.00;;;;;;6126452;23;20017;-82
2023/04/19 06:20:42;;;;;;;6.85;4.75;;;14.10;95.40;;;;;;6126240;23;20016;-82
2023/04/19 06:23:08;;;;;;;9.90;4.53;;;14.40;94.30;;;;;;6152913;23;20369;-82
2023/04/19 06:25:34;;;;;;;8.43;4.43;;;14.30;94.80;;;;;;6102137;23;20009;-82
2023/04/19 06:28:00;;;;;;;7.85;4.30;;;13.80;94.20;;;;;;6126506;23;20056;-82
2023/04/19 06:30:25;;;;;;;6.15;4.55;;;14.00;94.90;;;;;;6101813;23;20060;-82
2023/04/19 06:32:51;;;;;;;9.23;4.63;;;14.20;94.00;;;;;;6126928;23;20083;-82
2023/04/19 06:35:17;;;;;;;7.63;4.60;;;14.30;94.20;;;;;;6101877;23;20400;-82
2023/04/19 06:37:42;;;;;;;6.85;3.83;;;14.60;92.70;;;;;;6126067;23;20009;-82
2023/04/19 06:40:08;;;;;;;8.52;4.00;;;15.00;92.30;;;;;;6101825;23;20027;-83
2023/04/19 06:42:34;;;;;;;6.28;4.10;;;15.60;94.30;;;;;;6126357;23;20010;-82
2023/04/19 06:45:00;;;;;;;7.53;3.72;;;15.70;91.20;;;;;;6126140;23;20053;-82
2023/04/19 06:47:26;;;;;;;6.95;4.13;;;15.80;92.50;;;;;;6101700;23;20009;-82
2023/04/19 06:49:52;;;;;;;6.68;4.20;;;16.30;90.20;;;;;;6101748;23;20492;-82
2023/04/19 06:52:17;;;;;;;6.68;3.95;;;15.40;91.60;;;;;;6126533;23;20310;-83
2023/04/19 06:54:50;;;;;;;8.30;4.20;;;14.30;91.40;;;;;;6152594;23;20037;-82
2023/04/19 06:57:16;;;;;;;7.78;4.10;;;13.30;92.30;;;;;;6101767;23;20010;-82
2023/04/19 06:59:43;;;;;;;6.43;4.15;;;12.10;93.40;;;;;;6101161;23;20013;-81
2023/04/19 07:02:08;;;;;;;5.53;3.85;;;11.30;95.00;;;;;;6126146;23;20014;-82
2023/04/19 07:04:35;;;;;;;6.55;4.57;;;11.00;97.10;;;;;;6125992;23;20373;-82
2023/04/19 07:07:00;;;;;;;7.90;3.80;;;11.30;98.30;;;;;;6126390;23;20056;-82
2023/04/19 07:09:26;;;;;;;7.03;3.83;;;10.80;98.10;;;;;;6126432;23;20096;-82
2023/04/19 07:11:52;;;;;;;5.15;3.63;;;10.50;98.40;;;;;;6126311;23;20033;-82
2023/04/19 07:14:18;;;;;;;6.93;4.68;;;10.20;99.00;;;;;;6126060;23;20045;-82
2023/04/19 07:16:44;;;;;;;8.13;4.07;;;10.10;99.90;;;;;;6126395;23;20045;-82
2023/04/19 07:19:10;;;;;;;6.70;4.13;;;10.10;99.90;;;;;;6101707;23;20010;-82
2023/04/19 07:21:38;;;;;;;7.05;4.28;;;9.80;99.70;;;;;;6152768;23;20016;-83
2023/04/19 07:24:04;;;;;;;10.70;4.18;;;9.90;99.90;;;;;;6101811;23;20336;-82
2023/04/19 07:26:33;;;;;;;7.75;3.85;;;9.70;99.90;;;;;;6152729;23;20041;-82
2023/04/19 07:28:59;;;;;;;5.75;3.83;;;9.90;99.90;;;;;;6101368;23;20025;-82
2023/04/19 07:31:26;;;;;;;5.57;3.72;;;9.90;99.90;;;;;;6126598;23;20065;-82
2023/04/19 07:33:52;;;;;;;7.40;3.92;;;10.00;99.90;;;;;;6152580;23;20009;-82
2023/04/19 07:36:18;;;;;;;5.95;3.72;;;10.00;99.90;;;;;;6125906;23;20043;-82
2023/04/19 07:38:44;;;;;;;5.60;3.28;;;10.10;99.90;;;;;;6101754;23;20049;-82
2023/04/19 07:41:09;;;;;;;4.65;3.30;;;10.00;99.60;;;;;;6101581;23;20020;-83
2023/04/19 07:43:36;;;;;;;6.20;3.80;;;10.30;99.40;;;;;;6101010;23;20013;-82
2023/04/19 07:46:08;;;;;;;5.30;3.70;;;10.00;98.60;;;;;;6125922;23;20156;-82
2023/04/19 07:48:33;;;;;;;5.85;3.72;;;10.00;99.30;;;;;;6126174;23;20009;-82
2023/04/19 07:51:15;;;;;;;5.47;3.80;;;10.10;99.90;;;;;;6126283;23;20048;-81
2023/04/19 07:53:43;;;;;;;4.70;3.40;;;10.20;99.90;;;;;;6125762;23;20410;-82
2023/04/19 07:56:10;;;;;;;6.72;3.72;;;10.20;99.70;;;;;;6125160;23;20025;-81
2023/04/19 07:58:36;;;;;;;6.78;3.55;;;10.30;99.90;;;;;;6103154;23;20017;-82
2023/04/19 08:01:02;;;;;;;9.65;3.58;;;10.40;99.60;;;;;;6154391;23;20018;-82
2023/04/19 08:03:32;;;;;;;7.07;3.45;;;10.40;99.90;;;;;;6103358;23;20009;-82
2023/04/19 08:06:01;;;;;;;5.30;3.65;;;10.40;99.40;;;;;;6154283;23;20010;-82
2023/04/19 08:08:27;;;;;;;6.15;3.67;;;10.60;99.90;;;;;;6103074;23;20088;-82
2023/04/19 08:10:55;;;;;;;4.82;3.45;;;11.40;99.90;;;;;;6127138;23;20076;-82
2023/04/19 08:13:21;;;;;;;7.80;3.25;;;12.60;98.00;;;;;;6103126;23;20080;-82
2023/04/19 08:15:46;;;;;;;5.10;3.30;;;13.70;96.80;;;;;;6127996;23;20014;-82
2023/04/19 08:18:12;;;;;;;5.63;3.35;;;14.80;95.80;;;;;;6127589;23;20044;-82
2023/04/19 08:20:41;;;;;;;6.43;3.42;;;14.80;93.30;;;;;;6153929;23;20068;-82
2023/04/19 08:23:07;;;;;;;4.82;2.70;;;15.70;92.90;;;;;;6127589;23;20088;-82
2023/04/19 08:25:33;;;;;;;4.93;2.58;;;15.60;91.40;;;;;;6127270;23;20009;-83
2023/04/19 08:27:59;;;;;;;5.78;2.88;;;15.40;90.70;;;;;;6102993;23;20024;-82
2023/04/19 08:30:24;;;;;;;4.95;2.70;;;15.50;90.80;;;;;;6127748;23;20088;-82
2023/04/19 08:32:50;;;;;;;4.65;2.72;;;15.40;90.20;;;;;;6127325;23;20026;-82
2023/04/19 08:35:16;;;;;;;4.38;2.45;;;15.20;89.70;;;;;;6127199;23;20070;-82
2023/04/19 08:37:42;;;;;;;5.22;2.58;;;15.30;90.20;;;;;;6103031;23;20348;-82
2023/04/19 08:40:09;;;;;;;3.70;2.20;;;15.40;89.80;;;;;;6153295;23;20085;-82
2023/04/19 08:42:35;;;;;;;8.35;2.42;;;15.60;90.10;;;;;;6127847;23;20014;-82
2023/04/19 08:45:04;;;;;;;6.35;2.55;;;15.20;89.20;;;;;;6127499;23;20026;-82
2023/04/19 08:47:33;;;;;;;4.90;2.30;;;15.30;88.10;;;;;;6127322;23;20271;-82
2023/04/19 08:50:02;;;;;;;3.65;2.20;;;15.30;88.90;;;;;;6102949;23;20013;-82
2023/04/19 08:52:29;;;;;;;6.15;2.35;;;15.10;90.60;;;;;;6127784;23;20084;-83
2023/04/19 08:54:56;;;;;;;5.50;2.53;;;14.80;88.90;;;;;;6121440;23;20021;-82
2023/04/19 08:57:21;;;;;;;4.28;2.40;;;14.50;89.80;;;;;;6122318;23;20353;-82
2023/04/19 08:59:51;;;;;;;4.43;2.70;;;14.50;90.60;;;;;;6122240;23;20014;-82
2023/04/19 09:02:16;;;;;;;3.42;2.13;;;14.00;90.10;;;;;;6122350;23;20016;-82
2023/04/19 09:04:42;;;;;;;6.55;2.55;;;13.80;90.10;;;;;;6122650;23;20041;-82
2023/04/19 09:07:08;;;;;;;4.20;2.08;;;13.60;90.10;;;;;;6122313;23;20224;-82
2023/04/19 09:09:34;;;;;;;5.68;2.15;;;13.20;89.50;;;;;;6121377;23;20124;-82
2023/04/19 09:12:00;;;;;;;6.97;2.30;;;12.80;89.70;;;;;;6123805;23;20013;-83
2023/04/19 09:14:27;;;;;;;3.40;2.13;;;12.80;90.80;;;;;;6122125;23;20014;-82
2023/04/19 09:16:53;;;;;;;5.75;2.72;;;12.60;90.80;;;;;;6122567;23;20025;-82
2023/04/19 09:19:19;;;;;;;4.15;2.50;;;12.50;91.30;;;;;;6122323;23;20014;-82
2023/04/19 09:21:45;;;;;;;4.45;2.30;;;12.60;91.60;;;;;;6122484;23;20021;-82
2023/04/19 09:24:11;;;;;;;4.60;2.30;;;13.00;91.70;;;;;;6121311;23;20404;-82
2023/04/19 09:26:36;;;;;;;4.47;2.50;;;13.20;91.00;;;;;;6097430;23;20010;-82
2023/04/19 09:29:04;;;;;;;4.50;2.30;;;13.60;90.90;;;;;;6123565;23;20090;-82
2023/04/19 09:31:36;;;;;;;5.25;2.20;;;14.00;90.90;;;;;;6122157;23;20488;-82
2023/04/19 09:34:18;;;;;;;3.90;2.38;;;14.30;91.30;;;;;;6121748;23;20057;-82
2023/04/19 09:36:45;;;;;;;5.97;2.25;;;14.60;88.80;;;;;;6122449;23;20016;-82
2023/04/19 09:39:11;;;;;;;4.25;2.10;;;14.50;85.20;;;;;;6123415;23;20329;-82
2023/04/19 09:41:53;;;;;;;4.22;2.10;;;14.70;86.60;;;;;;6122228;23;20419;-81
2023/04/19 09:44:19;;;;;;;4.28;2.03;;;14.20;85.40;;;;;;6124020;23;20013;-81
2023/04/19 09:46:47;;;;;;;5.45;2.00;;;13.80;85.60;;;;;;6123674;23;20025;-81
2023/04/19 09:49:18;;;;;;;3.92;2.20;;;13.70;86.60;;;;;;6124109;23;20006;-82
2023/04/19 09:51:47;;;;;;;5.32;2.00;;;13.50;87.70;;;;;;6097500;23;20085;-81
2023/04/19 09:54:14;;;;;;;6.82;2.72;;;13.30;87.70;;;;;;6121599;23;20045;-82
2023/04/19 09:56:40;;;;;;;5.90;2.70;;;13.10;87.90;;;;;;6121747;23;20017;-82
2023/04/19 09:59:07;;;;;;;4.32;2.35;;;13.20;87.60;;;;;;6097443;23;20025;-82
2023/04/19 10:01:53;;;;;;;4.68;2.17;;;13.20;87.80;;;;;;6124040;23;20410;-82
2023/04/19 10:04:23;;;;;;;5.60;2.88;;;13.20;88.80;;;;;;6122230;23;20021;-82
2023/04/19 10:06:51;;;;;;;4.75;2.20;;;13.40;88.50;;;;;;6121449;23;20010;-82
2023/04/19 10:09:21;;;;;;;7.18;2.08;;;13.40;89.00;;;;;;6123656;23;20080;-81
2023/04/19 10:11:51;;;;;;;4.82;2.15;;;13.40;86.80;;;;;;6123876;23;20009;-81
2023/04/19 10:14:23;;;;;;;4.38;2.10;;;13.40;87.70;;;;;;6122680;23;20049;-82
2023/04/19 10:16:49;;;;;;;4.28;2.35;;;13.30;86.90;;;;;;6122673;23;20021;-82
2023/04/19 10:19:18;;;;;;;3.40;1.95;;;13.30;87.40;;;;;;6121997;23;20024;-82
2023/04/19 10:21:47;;;;;;;5.55;2.35;;;13.20;88.10;;;;;;6121268;23;20089;-81
2023/04/19 10:24:14;;;;;;;4.45;2.13;;;13.30;89.30;;;;;;6097442;23;20021;-82
2023/04/19 10:27:02;;;;;;;6.88;2.10;;;13.40;90.10;;;;;;6121971;23;20010;-82
2023/04/19 10:30:06;;;;;;;6.72;1.55;;;13.50;86.20;;;;;;6121759;23;20056;-82
2023/04/19 10:32:40;;;;;;;3.33;1.77;;;13.60;88.10;;;;;;6097319;23;20013;-82
2023/04/19 10:35:08;;;;;;;4.47;1.75;;;13.70;87.40;;;;;;6123724;23;20042;-82
2023/04/19 10:37:33;;;;;;;4.45;1.80;;;13.60;84.70;;;;;;6123113;23;20010;-81
2023/04/19 10:39:59;;;;;;;10.80;1.70;;;13.60;86.10;;;;;;6121653;23;20282;-83
2023/04/19 10:43:03;;;;;;;6.18;1.85;;;13.90;86.10;;;;;;6123594;23;20027;-81
2023/04/19 10:45:33;;;;;;;4.13;1.65;;;13.90;83.40;;;;;;6123519;23;20109;-81
2023/04/19 10:48:01;;;;;;;3.13;1.70;;;14.00;85.00;;;;;;6097296;23;20081;-82
2023/04/19 10:50:26;;;;;;;2.97;1.83;;;13.90;85.50;;;;;;6122663;23;20476;-82
2023/04/19 10:52:52;;;;;;;5.35;1.70;;;14.10;86.20;;;;;;6121535;23;20014;-82
2023/04/19 10:55:19;;;;;;;2.90;1.73;;;14.00;86.60;;;;;;6134755;23;20076;-82
2023/04/19 10:58:04;;;;;;;9.88;2.00;;;13.90;86.30;;;;;;6126595;23;20440;-82
2023/04/19 11:00:34;;;;;;;3.88;1.90;;;14.10;87.80;;;;;;6102111;23;20099;-82
2023/04/19 11:03:38;;;;;;;5.25;1.80;;;14.20;86.90;;;;;;6126502;23;20014;-83
2023/04/19 11:06:25;;;;;;;4.30;2.03;;;14.10;84.20;;;;;;6125537;23;20040;-82
2023/04/19 11:08:56;;;;;;;5.00;1.92;;;14.00;85.60;;;;;;6152851;23;20022;-81
2023/04/19 11:11:22;;;;;;;4.35;2.00;;;13.90;86.40;;;;;;6126341;23;20444;-82
2023/04/19 11:13:48;;;;;;;5.55;1.92;;;14.00;86.40;;;;;;6126511;23;20088;-82
2023/04/19 11:16:13;;;;;;;5.22;1.88;;;14.00;86.70;;;;;;6153064;23;20048;-82
2023/04/19 11:18:39;;;;;;;8.02;2.13;;;14.00;86.10;;;;;;6101969;23;20016;-82
2023/04/19 11:21:05;;;;;;;6.20;1.80;;;14.20;87.00;;;;;;6152291;23;20408;-82
2023/04/19 11:23:30;;;;;;;4.47;1.75;;;14.20;86.70;;;;;;6126307;23;20022;-82
2023/04/19 11:25:56;;;;;;;5.15;1.60;;;14.30;86.10;;;;;;6126478;23;20242;-82
2023/04/19 11:28:21;;;;;;;4.57;1.60;;;14.30;85.70;;;;;;6152910;23;20017;-80
2023/04/19 11:30:48;;;;;;;4.07;1.73;;;14.10;85.50;;;;;;6126776;23;20084;-80
2023/04/19 11:33:14;;;;;;;4.93;2.08;;;13.90;86.10;;;;;;6127508;23;20056;-81
2023/04/19 11:35:42;;;;;;;4.10;1.73;;;14.10;86.20;;;;;;6127640;23;20017;-81
2023/04/19 11:38:11;;;;;;;5.65;2.58;;;14.20;87.90;;;;;;6154700;23;20050;-81
2023/04/19 11:40:37;;;;;;;4.43;2.35;;;14.10;86.30;;;;;;6154627;23;20067;-80
2023/04/19 11:43:03;;;;;;;3.97;2.20;;;14.10;88.90;;;;;;6128612;23;20016;-80
2023/04/19 11:45:35;;;;;;;7.57;2.30;;;13.80;87.80;;;;;;6154803;23;20336;-81
2023/04/19 11:48:01;;;;;;;4.35;2.70;;;13.90;89.30;;;;;;6154831;23;20033;-81
2023/04/19 11:50:41;;;;;;;4.85;2.20;;;14.00;88.80;;;;;;6154166;23;20017;-81
2023/04/19 11:53:17;;;;;;;3.58;2.35;;;14.20;90.10;;;;;;6128073;23;20475;-81
2023/04/19 11:55:47;;;;;;;9.07;2.90;;;14.30;90.20;;;;;;6123268;23;20382;-81
2023/04/19 11:58:28;;;;;;;4.88;2.70;;;14.30;88.40;;;;;;6125016;23;20013;-80
2023/04/19 12:00:54;;;;;;;5.15;2.70;;;14.20;90.00;;;;;;6125071;23;20014;-80
2023/04/19 12:03:23;;;;;;;4.60;2.78;;;14.10;88.50;;;;;;6124561;23;20097;-81
2023/04/19 12:05:56;;;;;;;4.45;2.85;;;14.10;89.40;;;;;;6123124;23;20141;-80
2023/04/19 12:08:41;;;;;;;6.03;2.92;;;14.10;89.80;;;;;;6123170;23;20013;-81
2023/04/19 12:11:07;;;;;;;5.10;2.80;;;14.10;88.40;;;;;;6123265;23;20295;-82
2023/04/19 12:13:33;;;;;;;9.48;2.92;;;14.20;90.40;;;;;;6125214;23;20014;-81
2023/04/19 12:15:59;;;;;;;5.68;2.60;;;14.30;89.60;;;;;;6125301;23;20022;-81
2023/04/19 12:18:25;;;;;;;7.82;3.40;;;14.50;90.80;;;;;;6124480;23;20010;-80
2023/04/19 12:20:52;;;;;;;5.25;2.95;;;14.50;88.20;;;;;;6098689;23;20061;-81
2023/04/19 12:23:19;;;;;;;6.18;3.05;;;14.30;89.10;;;;;;6123157;23;20014;-81
2023/04/19 12:25:47;;;;;;;4.22;2.50;;;14.20;88.80;;;;;;6124595;23;20049;-80
2023/04/19 12:28:13;;;;;;;4.72;2.97;;;14.20;89.30;;;;;;6123216;23;20014;-81
2023/04/19 12:30:40;;;;;;;4.82;2.92;;;14.20;89.70;;;;;;6123548;23;20017;-81
2023/04/19 12:33:06;;;;;;;6.15;2.65;;;14.30;89.50;;;;;;6098011;23;20018;-81
2023/04/19 12:35:32;;;;;;;5.25;3.00;;;14.30;90.20;;;;;;6124984;23;20392;-81
2023/04/19 12:37:59;;;;;;;8.07;3.00;;;14.40;90.00;;;;;;6122715;23;20017;-81
2023/04/19 12:40:25;;;;;;;5.28;2.67;;;14.30;89.80;;;;;;6122910;23;20036;-81
2023/04/19 12:42:52;;;;;;;5.88;2.97;;;14.30;89.00;;;;;;6098423;23;20026;-81
2023/04/19 12:45:18;;;;;;;5.22;2.95;;;14.40;88.80;;;;;;6124971;23;20010;-81